sensor_id;sensor_type;location;lat;lon;timestamp;P1;durP1;ratioP1;P2;durP2;ratioP2
65656;SDS011;57397;50.096;14.404;2023-04-01T00:01:32;1.15;;;0.60;;
65656;SDS011;57397;50.096;14.404;2023-04-01T00:03:58;0.90;;;0.55;;
65656;SDS011;57397;50.096;14.404;2023-04-01T00:06:24;0.77;;;0.50;;
65656;SDS011;57397;50.096;14.404;2023-04-01T00:08:49;1.63;;;0.70;;
65656;SDS011;57397;50.096;14.404;2023-04-01T00:11:15;1.23;;;0.60;;
65656;SDS011;57397;50.096;14.404;2023-04-01T00:13:41;1.38;;;0.50;;
65656;SDS011;57397;50.096;14.404;2023-04-01T00:16:07;1.55;;;0.60;;
65656;SDS011;57397;50.096;14.404;2023-04-01T00:18:33;0.68;;;0.50;;
65656;SDS011;57397;50.096;14.404;2023-04-01T00:20:58;1.27;;;0.60;;
65656;SDS011;57397;50.096;14.404;2023-04-01T00:23:24;1.33;;;0.70;;
65656;SDS011;57397;50.096;14.404;2023-04-01T00:25:49;2.40;;;0.70;;
65656;SDS011;57397;50.096;14.404;2023-04-01T00:28:19;1.27;;;0.70;;
65656;SDS011;57397;50.096;14.404;2023-04-01T00:30:45;0.70;;;0.60;;
65656;SDS011;57397;50.096;14.404;2023-04-01T00:33:11;1.52;;;0.57;;
65656;SDS011;57397;50.096;14.404;2023-04-01T00:35:36;1.10;;;0.50;;
65656;SDS011;57397;50.096;14.404;2023-04-01T00:38:03;1.20;;;0.50;;
65656;SDS011;57397;50.096;14.404;2023-04-01T00:40:39;1.02;;;0.55;;
65656;SDS011;57397;50.096;14.404;2023-04-01T00:43:10;0.85;;;0.40;;
65656;SDS011;57397;50.096;14.404;2023-04-01T00:45:44;1.05;;;0.50;;
65656;SDS011;57397;50.096;14.404;2023-04-01T00:48:16;1.40;;;0.60;;
65656;SDS011;57397;50.096;14.404;2023-04-01T00:50:54;1.00;;;0.40;;
65656;SDS011;57397;50.096;14.404;2023-04-01T00:53:21;1.58;;;0.57;;
65656;SDS011;57397;50.096;14.404;2023-04-01T00:55:51;0.55;;;0.43;;
65656;SDS011;57397;50.096;14.404;2023-04-01T00:58:23;0.40;;;0.40;;
65656;SDS011;57397;50.096;14.404;2023-04-01T01:00:50;0.43;;;0.30;;
65656;SDS011;57397;50.096;14.404;2023-04-01T01:03:16;1.30;;;0.50;;
65656;SDS011;57397;50.096;14.404;2023-04-01T01:05:49;0.70;;;0.40;;
65656;SDS011;57397;50.096;14.404;2023-04-01T01:08:23;1.75;;;0.50;;
65656;SDS011;57397;50.096;14.404;2023-04-01T01:13:34;0.85;;;0.40;;
65656;SDS011;57397;50.096;14.404;2023-04-01T01:16:10;1.55;;;0.50;;
65656;SDS011;57397;50.096;14.404;2023-04-01T01:18:52;1.35;;;0.38;;
65656;SDS011;57397;50.096;14.404;2023-04-01T01:27:07;0.50;;;0.30;;
65656;SDS011;57397;50.096;14.404;2023-04-01T01:29:58;0.63;;;0.40;;
65656;SDS011;57397;50.096;14.404;2023-04-01T01:38:23;0.70;;;0.50;;
65656;SDS011;57397;50.096;14.404;2023-04-01T01:40:52;1.20;;;0.43;;
65656;SDS011;57397;50.096;14.404;2023-04-01T01:43:23;0.57;;;0.38;;
65656;SDS011;57397;50.096;14.404;2023-04-01T01:45:57;0.45;;;0.35;;
65656;SDS011;57397;50.096;14.404;2023-04-01T01:48:24;0.35;;;0.35;;
65656;SDS011;57397;50.096;14.404;2023-04-01T01:50:51;0.98;;;0.40;;
65656;SDS011;57397;50.096;14.404;2023-04-01T01:53:18;0.40;;;0.40;;
65656;SDS011;57397;50.096;14.404;2023-04-01T01:55:44;0.82;;;0.40;;
65656;SDS011;57397;50.096;14.404;2023-04-01T02:00:35;1.02;;;0.50;;
65656;SDS011;57397;50.096;14.404;2023-04-01T02:03:01;0.98;;;0.50;;
65656;SDS011;57397;50.096;14.404;2023-04-01T02:05:28;0.85;;;0.50;;
65656;SDS011;57397;50.096;14.404;2023-04-01T02:08:03;0.98;;;0.40;;
65656;SDS011;57397;50.096;14.404;2023-04-01T02:10:42;0.95;;;0.45;;
65656;SDS011;57397;50.096;14.404;2023-04-01T02:13:13;0.80;;;0.40;;
65656;SDS011;57397;50.096;14.404;2023-04-01T02:15:44;0.95;;;0.50;;
65656;SDS011;57397;50.096;14.404;2023-04-01T02:18:12;1.23;;;0.50;;
65656;SDS011;57397;50.096;14.404;2023-04-01T02:20:38;1.08;;;0.40;;
65656;SDS011;57397;50.096;14.404;2023-04-01T02:23:05;1.88;;;0.65;;
65656;SDS011;57397;50.096;14.404;2023-04-01T02:25:33;1.15;;;0.60;;
65656;SDS011;57397;50.096;14.404;2023-04-01T02:28:00;0.50;;;0.40;;
65656;SDS011;57397;50.096;14.404;2023-04-01T02:30:27;0.60;;;0.50;;
65656;SDS011;57397;50.096;14.404;2023-04-01T02:32:55;0.55;;;0.50;;
65656;SDS011;57397;50.096;14.404;2023-04-01T02:35:21;1.42;;;0.50;;
65656;SDS011;57397;50.096;14.404;2023-04-01T02:37:48;0.85;;;0.52;;
65656;SDS011;57397;50.096;14.404;2023-04-01T02:40:15;0.82;;;0.55;;
65656;SDS011;57397;50.096;14.404;2023-04-01T02:42:40;1.15;;;0.60;;
65656;SDS011;57397;50.096;14.404;2023-04-01T02:45:06;1.15;;;0.60;;
65656;SDS011;57397;50.096;14.404;2023-04-01T02:47:32;1.48;;;0.50;;
65656;SDS011;57397;50.096;14.404;2023-04-01T02:49:58;1.40;;;0.40;;
65656;SDS011;57397;50.096;14.404;2023-04-01T02:52:25;0.75;;;0.47;;
65656;SDS011;57397;50.096;14.404;2023-04-01T02:54:51;0.75;;;0.43;;
65656;SDS011;57397;50.096;14.404;2023-04-01T02:57:17;0.43;;;0.40;;
65656;SDS011;57397;50.096;14.404;2023-04-01T02:59:42;1.02;;;0.43;;
65656;SDS011;57397;50.096;14.404;2023-04-01T03:02:08;0.90;;;0.40;;
65656;SDS011;57397;50.096;14.404;2023-04-01T03:04:33;1.20;;;0.50;;
65656;SDS011;57397;50.096;14.404;2023-04-01T03:06:59;1.48;;;0.40;;
65656;SDS011;57397;50.096;14.404;2023-04-01T03:09:24;0.80;;;0.50;;
65656;SDS011;57397;50.096;14.404;2023-04-01T03:11:50;0.32;;;0.30;;
65656;SDS011;57397;50.096;14.404;2023-04-01T03:14:16;0.90;;;0.60;;
65656;SDS011;57397;50.096;14.404;2023-04-01T03:16:41;0.60;;;0.45;;
65656;SDS011;57397;50.096;14.404;2023-04-01T03:19:07;2.28;;;0.68;;
65656;SDS011;57397;50.096;14.404;2023-04-01T03:21:32;1.20;;;0.40;;
65656;SDS011;57397;50.096;14.404;2023-04-01T03:23:58;1.17;;;0.50;;
65656;SDS011;57397;50.096;14.404;2023-04-01T03:26:23;1.30;;;0.60;;
65656;SDS011;57397;50.096;14.404;2023-04-01T03:28:51;0.93;;;0.40;;
65656;SDS011;57397;50.096;14.404;2023-04-01T03:31:17;0.98;;;0.60;;
65656;SDS011;57397;50.096;14.404;2023-04-01T03:33:43;1.05;;;0.60;;
65656;SDS011;57397;50.096;14.404;2023-04-01T03:36:09;1.00;;;0.50;;
65656;SDS011;57397;50.096;14.404;2023-04-01T03:38:36;1.27;;;0.50;;
65656;SDS011;57397;50.096;14.404;2023-04-01T03:41:02;0.82;;;0.47;;
65656;SDS011;57397;50.096;14.404;2023-04-01T03:43:27;1.20;;;0.57;;
65656;SDS011;57397;50.096;14.404;2023-04-01T03:45:53;0.60;;;0.50;;
65656;SDS011;57397;50.096;14.404;2023-04-01T03:48:19;1.17;;;0.60;;
65656;SDS011;57397;50.096;14.404;2023-04-01T03:50:45;1.05;;;0.50;;
65656;SDS011;57397;50.096;14.404;2023-04-01T03:53:12;2.10;;;0.63;;
65656;SDS011;57397;50.096;14.404;2023-04-01T03:55:38;0.80;;;0.45;;
65656;SDS011;57397;50.096;14.404;2023-04-01T03:58:04;0.77;;;0.50;;
65656;SDS011;57397;50.096;14.404;2023-04-01T04:00:30;1.38;;;0.60;;
65656;SDS011;57397;50.096;14.404;2023-04-01T04:02:56;1.25;;;0.40;;
65656;SDS011;57397;50.096;14.404;2023-04-01T04:05:23;0.80;;;0.50;;
65656;SDS011;57397;50.096;14.404;2023-04-01T04:07:50;1.55;;;0.50;;
65656;SDS011;57397;50.096;14.404;2023-04-01T04:10:16;1.27;;;0.50;;
65656;SDS011;57397;50.096;14.404;2023-04-01T04:12:41;1.50;;;0.60;;
65656;SDS011;57397;50.096;14.404;2023-04-01T04:15:07;0.75;;;0.57;;
65656;SDS011;57397;50.096;14.404;2023-04-01T04:17:33;1.13;;;0.55;;
65656;SDS011;57397;50.096;14.404;2023-04-01T04:19:59;0.80;;;0.60;;
65656;SDS011;57397;50.096;14.404;2023-04-01T04:22:24;0.70;;;0.43;;
65656;SDS011;57397;50.096;14.404;2023-04-01T04:24:50;0.93;;;0.55;;
65656;SDS011;57397;50.096;14.404;2023-04-01T04:27:15;1.95;;;0.50;;
65656;SDS011;57397;50.096;14.404;2023-04-01T04:29:40;1.75;;;0.75;;
65656;SDS011;57397;50.096;14.404;2023-04-01T04:32:06;0.73;;;0.40;;
65656;SDS011;57397;50.096;14.404;2023-04-01T04:34:32;1.20;;;0.60;;
65656;SDS011;57397;50.096;14.404;2023-04-01T04:36:57;0.73;;;0.43;;
65656;SDS011;57397;50.096;14.404;2023-04-01T04:39:23;1.02;;;0.60;;
65656;SDS011;57397;50.096;14.404;2023-04-01T04:41:49;1.48;;;0.50;;
65656;SDS011;57397;50.096;14.404;2023-04-01T04:44:14;1.63;;;0.60;;
65656;SDS011;57397;50.096;14.404;2023-04-01T04:46:39;1.02;;;0.57;;
65656;SDS011;57397;50.096;14.404;2023-04-01T04:49:06;0.50;;;0.50;;
65656;SDS011;57397;50.096;14.404;2023-04-01T04:51:32;0.82;;;0.20;;
65656;SDS011;57397;50.096;14.404;2023-04-01T04:54:04;1.00;;;0.50;;
65656;SDS011;57397;50.096;14.404;2023-04-01T04:56:30;1.50;;;0.70;;
65656;SDS011;57397;50.096;14.404;2023-04-01T04:58:56;1.67;;;0.50;;
65656;SDS011;57397;50.096;14.404;2023-04-01T05:01:22;0.73;;;0.50;;
65656;SDS011;57397;50.096;14.404;2023-04-01T05:03:47;0.60;;;0.40;;
65656;SDS011;57397;50.096;14.404;2023-04-01T05:06:14;1.23;;;0.60;;
65656;SDS011;57397;50.096;14.404;2023-04-01T05:08:40;1.30;;;0.60;;
65656;SDS011;57397;50.096;14.404;2023-04-01T05:11:11;0.77;;;0.50;;
65656;SDS011;57397;50.096;14.404;2023-04-01T05:13:38;0.90;;;0.50;;
65656;SDS011;57397;50.096;14.404;2023-04-01T05:16:08;0.98;;;0.40;;
65656;SDS011;57397;50.096;14.404;2023-04-01T05:18:34;1.45;;;0.70;;
65656;SDS011;57397;50.096;14.404;2023-04-01T05:21:00;0.75;;;0.50;;
65656;SDS011;57397;50.096;14.404;2023-04-01T05:23:25;1.10;;;0.47;;
65656;SDS011;57397;50.096;14.404;2023-04-01T05:25:51;0.85;;;0.45;;
65656;SDS011;57397;50.096;14.404;2023-04-01T05:28:18;1.00;;;0.70;;
65656;SDS011;57397;50.096;14.404;2023-04-01T05:30:44;1.40;;;0.50;;
65656;SDS011;57397;50.096;14.404;2023-04-01T05:33:11;1.05;;;0.60;;
65656;SDS011;57397;50.096;14.404;2023-04-01T05:35:37;0.60;;;0.50;;
65656;SDS011;57397;50.096;14.404;2023-04-01T05:38:03;0.82;;;0.45;;
65656;SDS011;57397;50.096;14.404;2023-04-01T05:40:29;1.63;;;0.50;;
65656;SDS011;57397;50.096;14.404;2023-04-01T05:42:54;1.55;;;0.77;;
65656;SDS011;57397;50.096;14.404;2023-04-01T05:45:20;1.38;;;0.70;;
65656;SDS011;57397;50.096;14.404;2023-04-01T05:47:46;1.77;;;0.60;;
65656;SDS011;57397;50.096;14.404;2023-04-01T05:50:12;1.35;;;0.68;;
65656;SDS011;57397;50.096;14.404;2023-04-01T05:52:38;1.42;;;0.55;;
65656;SDS011;57397;50.096;14.404;2023-04-01T05:55:03;1.20;;;0.60;;
65656;SDS011;57397;50.096;14.404;2023-04-01T05:57:30;1.23;;;0.68;;
65656;SDS011;57397;50.096;14.404;2023-04-01T05:59:55;1.17;;;0.63;;
65656;SDS011;57397;50.096;14.404;2023-04-01T06:02:20;1.52;;;0.70;;
65656;SDS011;57397;50.096;14.404;2023-04-01T06:04:46;1.45;;;0.47;;
65656;SDS011;57397;50.096;14.404;2023-04-01T06:07:16;1.15;;;0.50;;
65656;SDS011;57397;50.096;14.404;2023-04-01T06:09:43;1.27;;;0.70;;
65656;SDS011;57397;50.096;14.404;2023-04-01T06:21:18;1.33;;;0.60;;
65656;SDS011;57397;50.096;14.404;2023-04-01T06:23:50;1.20;;;0.60;;
65656;SDS011;57397;50.096;14.404;2023-04-01T06:29:47;1.95;;;0.63;;
65656;SDS011;57397;50.096;14.404;2023-04-01T06:40:17;1.65;;;0.55;;
65656;SDS011;57397;50.096;14.404;2023-04-01T06:48:50;0.98;;;0.60;;
65656;SDS011;57397;50.096;14.404;2023-04-01T06:54:07;0.85;;;0.55;;
65656;SDS011;57397;50.096;14.404;2023-04-01T06:56:36;1.20;;;0.55;;
65656;SDS011;57397;50.096;14.404;2023-04-01T06:59:22;1.13;;;0.65;;
65656;SDS011;57397;50.096;14.404;2023-04-01T07:01:51;1.48;;;0.60;;
65656;SDS011;57397;50.096;14.404;2023-04-01T07:04:20;1.20;;;0.52;;
65656;SDS011;57397;50.096;14.404;2023-04-01T07:07:04;1.10;;;0.68;;
65656;SDS011;57397;50.096;14.404;2023-04-01T07:09:38;2.00;;;0.70;;
65656;SDS011;57397;50.096;14.404;2023-04-01T07:12:49;1.88;;;0.82;;
65656;SDS011;57397;50.096;14.404;2023-04-01T07:15:21;2.75;;;0.70;;
65656;SDS011;57397;50.096;14.404;2023-04-01T07:17:52;1.20;;;0.57;;
65656;SDS011;57397;50.096;14.404;2023-04-01T07:20:24;1.02;;;0.52;;
65656;SDS011;57397;50.096;14.404;2023-04-01T07:22:54;1.30;;;0.65;;
65656;SDS011;57397;50.096;14.404;2023-04-01T07:25:22;1.75;;;0.70;;
65656;SDS011;57397;50.096;14.404;2023-04-01T07:28:02;1.45;;;0.60;;
65656;SDS011;57397;50.096;14.404;2023-04-01T07:30:33;1.48;;;0.63;;
65656;SDS011;57397;50.096;14.404;2023-04-01T07:34:00;0.88;;;0.50;;
65656;SDS011;57397;50.096;14.404;2023-04-01T07:36:25;1.25;;;0.70;;
65656;SDS011;57397;50.096;14.404;2023-04-01T07:42:36;1.00;;;0.65;;
65656;SDS011;57397;50.096;14.404;2023-04-01T07:50:25;1.48;;;0.70;;
65656;SDS011;57397;50.096;14.404;2023-04-01T07:53:27;1.38;;;0.70;;
65656;SDS011;57397;50.096;14.404;2023-04-01T07:56:24;1.60;;;0.90;;
65656;SDS011;57397;50.096;14.404;2023-04-01T08:01:52;1.90;;;0.70;;
65656;SDS011;57397;50.096;14.404;2023-04-01T08:07:08;1.38;;;0.60;;
65656;SDS011;57397;50.096;14.404;2023-04-01T08:10:41;1.00;;;0.57;;
65656;SDS011;57397;50.096;14.404;2023-04-01T08:15:22;1.50;;;0.60;;
65656;SDS011;57397;50.096;14.404;2023-04-01T08:20:57;0.93;;;0.60;;
65656;SDS011;57397;50.096;14.404;2023-04-01T08:23:26;1.48;;;0.45;;
65656;SDS011;57397;50.096;14.404;2023-04-01T08:25:58;1.00;;;0.57;;
65656;SDS011;57397;50.096;14.404;2023-04-01T08:28:46;1.10;;;0.60;;
65656;SDS011;57397;50.096;14.404;2023-04-01T08:34:39;1.30;;;0.50;;
65656;SDS011;57397;50.096;14.404;2023-04-01T08:37:17;0.82;;;0.40;;
65656;SDS011;57397;50.096;14.404;2023-04-01T08:39:58;1.10;;;0.50;;
65656;SDS011;57397;50.096;14.404;2023-04-01T08:51:11;1.10;;;0.50;;
65656;SDS011;57397;50.096;14.404;2023-04-01T08:54:22;0.82;;;0.60;;
65656;SDS011;57397;50.096;14.404;2023-04-01T08:57:09;1.38;;;0.65;;
65656;SDS011;57397;50.096;14.404;2023-04-01T09:27:26;1.10;;;0.40;;
65656;SDS011;57397;50.096;14.404;2023-04-01T09:43:28;0.60;;;0.45;;
65656;SDS011;57397;50.096;14.404;2023-04-01T10:08:20;0.93;;;0.55;;
65656;SDS011;57397;50.096;14.404;2023-04-01T10:32:21;0.50;;;0.40;;
65656;SDS011;57397;50.096;14.404;2023-04-01T10:38:08;0.70;;;0.50;;
65656;SDS011;57397;50.096;14.404;2023-04-01T10:41:08;0.85;;;0.40;;
65656;SDS011;57397;50.096;14.404;2023-04-01T10:49:43;1.02;;;0.40;;
65656;SDS011;57397;50.096;14.404;2023-04-01T11:12:40;1.08;;;0.60;;
65656;SDS011;57397;50.096;14.404;2023-04-01T11:15:47;0.85;;;0.50;;
65656;SDS011;57397;50.096;14.404;2023-04-01T11:23:46;1.00;;;0.40;;
65656;SDS011;57397;50.096;14.404;2023-04-01T11:31:46;0.43;;;0.40;;
65656;SDS011;57397;50.096;14.404;2023-04-01T11:34:53;0.80;;;0.47;;
65656;SDS011;57397;50.096;14.404;2023-04-01T11:45:58;1.58;;;0.60;;
65656;SDS011;57397;50.096;14.404;2023-04-01T11:48:41;1.10;;;0.55;;
65656;SDS011;57397;50.096;14.404;2023-04-01T11:54:03;0.88;;;0.50;;
65656;SDS011;57397;50.096;14.404;2023-04-01T11:56:57;0.70;;;0.60;;
65656;SDS011;57397;50.096;14.404;2023-04-01T12:05:51;1.00;;;0.65;;
65656;SDS011;57397;50.096;14.404;2023-04-01T12:16:52;0.57;;;0.50;;
65656;SDS011;57397;50.096;14.404;2023-04-01T12:24:49;1.60;;;0.63;;
65656;SDS011;57397;50.096;14.404;2023-04-01T12:27:29;3.17;;;0.70;;
65656;SDS011;57397;50.096;14.404;2023-04-01T12:30:24;0.88;;;0.60;;
65656;SDS011;57397;50.096;14.404;2023-04-01T12:33:31;1.30;;;0.75;;
65656;SDS011;57397;50.096;14.404;2023-04-01T12:47:06;2.40;;;0.80;;
65656;SDS011;57397;50.096;14.404;2023-04-01T12:55:16;1.95;;;0.80;;
65656;SDS011;57397;50.096;14.404;2023-04-01T13:03:24;1.15;;;0.80;;
65656;SDS011;57397;50.096;14.404;2023-04-01T13:22:12;1.23;;;0.75;;
65656;SDS011;57397;50.096;14.404;2023-04-01T13:30:03;1.40;;;0.77;;
65656;SDS011;57397;50.096;14.404;2023-04-01T13:35:30;0.80;;;0.70;;
65656;SDS011;57397;50.096;14.404;2023-04-01T13:38:22;0.90;;;0.73;;
65656;SDS011;57397;50.096;14.404;2023-04-01T13:41:34;1.95;;;0.77;;
65656;SDS011;57397;50.096;14.404;2023-04-01T13:44:11;2.00;;;0.77;;
65656;SDS011;57397;50.096;14.404;2023-04-01T13:49:32;1.77;;;0.88;;
65656;SDS011;57397;50.096;14.404;2023-04-01T13:58:24;1.98;;;0.80;;
65656;SDS011;57397;50.096;14.404;2023-04-01T14:01:06;1.60;;;0.85;;
65656;SDS011;57397;50.096;14.404;2023-04-01T14:21:21;1.55;;;0.80;;
65656;SDS011;57397;50.096;14.404;2023-04-01T14:32:49;1.48;;;0.90;;
65656;SDS011;57397;50.096;14.404;2023-04-01T14:38:29;1.17;;;0.80;;
65656;SDS011;57397;50.096;14.404;2023-04-01T14:45:12;1.67;;;0.90;;
65656;SDS011;57397;50.096;14.404;2023-04-01T14:50:22;1.70;;;0.80;;
65656;SDS011;57397;50.096;14.404;2023-04-01T14:53:33;1.35;;;0.90;;
65656;SDS011;57397;50.096;14.404;2023-04-01T14:56:07;2.05;;;1.10;;
65656;SDS011;57397;50.096;14.404;2023-04-01T15:22:37;1.77;;;1.00;;
65656;SDS011;57397;50.096;14.404;2023-04-01T15:25:23;1.42;;;0.90;;
65656;SDS011;57397;50.096;14.404;2023-04-01T15:28:25;1.83;;;1.05;;
65656;SDS011;57397;50.096;14.404;2023-04-01T15:30:54;2.03;;;1.20;;
65656;SDS011;57397;50.096;14.404;2023-04-01T15:36:06;1.83;;;0.95;;
65656;SDS011;57397;50.096;14.404;2023-04-01T15:47:31;1.40;;;1.00;;
65656;SDS011;57397;50.096;14.404;2023-04-01T15:56:36;1.70;;;1.00;;
65656;SDS011;57397;50.096;14.404;2023-04-01T15:59:26;1.42;;;0.85;;
65656;SDS011;57397;50.096;14.404;2023-04-01T16:10:06;2.45;;;1.15;;
65656;SDS011;57397;50.096;14.404;2023-04-01T16:12:38;1.95;;;1.00;;
65656;SDS011;57397;50.096;14.404;2023-04-01T16:20:42;3.03;;;1.75;;
65656;SDS011;57397;50.096;14.404;2023-04-01T16:25:44;2.85;;;1.63;;
65656;SDS011;57397;50.096;14.404;2023-04-01T16:28:32;3.22;;;1.60;;
65656;SDS011;57397;50.096;14.404;2023-04-01T16:34:14;2.25;;;1.50;;
65656;SDS011;57397;50.096;14.404;2023-04-01T16:36:53;2.15;;;1.30;;
65656;SDS011;57397;50.096;14.404;2023-04-01T16:39:36;2.03;;;1.30;;
65656;SDS011;57397;50.096;14.404;2023-04-01T16:42:13;1.80;;;1.10;;
65656;SDS011;57397;50.096;14.404;2023-04-01T16:44:49;1.58;;;1.10;;
65656;SDS011;57397;50.096;14.404;2023-04-01T16:47:21;1.70;;;1.10;;
65656;SDS011;57397;50.096;14.404;2023-04-01T16:55:54;1.33;;;0.98;;
65656;SDS011;57397;50.096;14.404;2023-04-01T17:01:44;1.67;;;1.08;;
65656;SDS011;57397;50.096;14.404;2023-04-01T17:07:06;1.90;;;1.00;;
65656;SDS011;57397;50.096;14.404;2023-04-01T17:18:04;1.77;;;0.90;;
65656;SDS011;57397;50.096;14.404;2023-04-01T17:21:16;1.42;;;0.80;;
65656;SDS011;57397;50.096;14.404;2023-04-01T17:27:05;1.55;;;0.80;;
65656;SDS011;57397;50.096;14.404;2023-04-01T17:38:40;2.15;;;1.30;;
65656;SDS011;57397;50.096;14.404;2023-04-01T17:41:08;2.20;;;1.50;;
65656;SDS011;57397;50.096;14.404;2023-04-01T17:43:58;1.58;;;1.23;;
65656;SDS011;57397;50.096;14.404;2023-04-01T17:46:56;2.83;;;1.40;;
65656;SDS011;57397;50.096;14.404;2023-04-01T17:49:45;1.83;;;1.20;;
65656;SDS011;57397;50.096;14.404;2023-04-01T17:52:57;2.55;;;1.42;;
65656;SDS011;57397;50.096;14.404;2023-04-01T17:58:18;2.25;;;1.30;;
65656;SDS011;57397;50.096;14.404;2023-04-01T18:03:44;2.20;;;1.17;;
65656;SDS011;57397;50.096;14.404;2023-04-01T18:06:17;1.75;;;1.25;;
65656;SDS011;57397;50.096;14.404;2023-04-01T18:09:13;2.40;;;1.15;;
65656;SDS011;57397;50.096;14.404;2023-04-01T18:17:41;2.00;;;1.20;;
65656;SDS011;57397;50.096;14.404;2023-04-01T18:20:25;1.85;;;1.05;;
65656;SDS011;57397;50.096;14.404;2023-04-01T18:26:01;1.30;;;1.00;;
65656;SDS011;57397;50.096;14.404;2023-04-01T18:28:39;2.20;;;1.30;;
65656;SDS011;57397;50.096;14.404;2023-04-01T18:36:38;1.20;;;0.80;;
65656;SDS011;57397;50.096;14.404;2023-04-01T18:39:16;1.83;;;0.75;;
65656;SDS011;57397;50.096;14.404;2023-04-01T18:44:54;1.20;;;0.80;;
65656;SDS011;57397;50.096;14.404;2023-04-01T18:50:30;1.00;;;0.80;;
65656;SDS011;57397;50.096;14.404;2023-04-01T18:55:57;2.55;;;1.27;;
65656;SDS011;57397;50.096;14.404;2023-04-01T18:58:27;1.15;;;0.75;;
65656;SDS011;57397;50.096;14.404;2023-04-01T19:01:15;1.48;;;0.82;;
65656;SDS011;57397;50.096;14.404;2023-04-01T19:06:21;0.90;;;0.70;;
65656;SDS011;57397;50.096;14.404;2023-04-01T19:08:51;1.50;;;0.88;;
65656;SDS011;57397;50.096;14.404;2023-04-01T19:25:12;1.10;;;0.80;;
65656;SDS011;57397;50.096;14.404;2023-04-01T19:30:56;0.93;;;0.80;;
65656;SDS011;57397;50.096;14.404;2023-04-01T19:36:22;2.03;;;0.82;;
65656;SDS011;57397;50.096;14.404;2023-04-01T19:41:40;1.58;;;1.00;;
65656;SDS011;57397;50.096;14.404;2023-04-01T19:53:11;1.65;;;1.05;;
65656;SDS011;57397;50.096;14.404;2023-04-01T19:55:48;1.60;;;0.85;;
65656;SDS011;57397;50.096;14.404;2023-04-01T19:58:37;2.17;;;1.20;;
65656;SDS011;57397;50.096;14.404;2023-04-01T20:01:14;1.83;;;1.30;;
65656;SDS011;57397;50.096;14.404;2023-04-01T20:03:58;2.20;;;1.10;;
65656;SDS011;57397;50.096;14.404;2023-04-01T20:09:14;1.42;;;0.90;;
65656;SDS011;57397;50.096;14.404;2023-04-01T20:19:51;1.25;;;0.90;;
65656;SDS011;57397;50.096;14.404;2023-04-01T20:25:04;1.98;;;0.85;;
65656;SDS011;57397;50.096;14.404;2023-04-01T20:27:37;1.80;;;1.00;;
65656;SDS011;57397;50.096;14.404;2023-04-01T20:41:45;1.33;;;0.82;;
65656;SDS011;57397;50.096;14.404;2023-04-01T20:44:35;1.25;;;0.80;;
65656;SDS011;57397;50.096;14.404;2023-04-01T20:52:57;1.00;;;0.65;;
65656;SDS011;57397;50.096;14.404;2023-04-01T20:58:35;1.27;;;0.80;;
65656;SDS011;57397;50.096;14.404;2023-04-01T21:06:44;1.70;;;1.00;;
65656;SDS011;57397;50.096;14.404;2023-04-01T21:14:54;0.95;;;0.70;;
65656;SDS011;57397;50.096;14.404;2023-04-01T21:25:32;1.10;;;0.75;;
65656;SDS011;57397;50.096;14.404;2023-04-01T22:01:21;1.42;;;0.80;;
65656;SDS011;57397;50.096;14.404;2023-04-01T22:06:34;1.40;;;0.63;;
65656;SDS011;57397;50.096;14.404;2023-04-01T22:09:41;3.70;;;1.50;;
65656;SDS011;57397;50.096;14.404;2023-04-01T22:12:13;0.73;;;0.52;;
65656;SDS011;57397;50.096;14.404;2023-04-01T22:14:48;1.08;;;0.63;;
65656;SDS011;57397;50.096;14.404;2023-04-01T22:20:39;1.48;;;0.70;;
65656;SDS011;57397;50.096;14.404;2023-04-01T22:26:25;0.98;;;0.70;;
65656;SDS011;57397;50.096;14.404;2023-04-01T22:31:27;1.20;;;0.80;;
65656;SDS011;57397;50.096;14.404;2023-04-01T22:34:13;1.23;;;0.70;;
65656;SDS011;57397;50.096;14.404;2023-04-01T22:36:49;1.38;;;0.70;;
65656;SDS011;57397;50.096;14.404;2023-04-01T22:47:40;1.23;;;0.75;;
65656;SDS011;57397;50.096;14.404;2023-04-01T22:53:01;1.77;;;0.63;;
65656;SDS011;57397;50.096;14.404;2023-04-01T22:55:38;1.00;;;0.68;;
65656;SDS011;57397;50.096;14.404;2023-04-01T22:58:07;1.23;;;0.68;;
65656;SDS011;57397;50.096;14.404;2023-04-01T23:00:45;1.20;;;0.70;;
65656;SDS011;57397;50.096;14.404;2023-04-01T23:05:54;1.02;;;0.60;;
65656;SDS011;57397;50.096;14.404;2023-04-01T23:10:59;1.30;;;0.77;;
65656;SDS011;57397;50.096;14.404;2023-04-01T23:13:41;1.08;;;0.60;;
65656;SDS011;57397;50.096;14.404;2023-04-01T23:16:20;0.93;;;0.70;;
65656;SDS011;57397;50.096;14.404;2023-04-01T23:19:02;1.27;;;0.75;;
65656;SDS011;57397;50.096;14.404;2023-04-01T23:24:19;0.85;;;0.55;;
65656;SDS011;57397;50.096;14.404;2023-04-01T23:26:59;0.60;;;0.52;;
65656;SDS011;57397;50.096;14.404;2023-04-01T23:29:31;0.80;;;0.50;;
65656;SDS011;57397;50.096;14.404;2023-04-01T23:32:01;0.77;;;0.57;;
65656;SDS011;57397;50.096;14.404;2023-04-01T23:34:35;0.52;;;0.40;;
65656;SDS011;57397;50.096;14.404;2023-04-01T23:37:04;0.90;;;0.60;;
65656;SDS011;57397;50.096;14.404;2023-04-01T23:39:45;0.52;;;0.40;;
65656;SDS011;57397;50.096;14.404;2023-04-01T23:45:13;1.00;;;0.60;;
65656;SDS011;57397;50.096;14.404;2023-04-01T23:47:47;0.60;;;0.50;;
65656;SDS011;57397;50.096;14.404;2023-04-01T23:50:17;0.90;;;0.60;;
65656;SDS011;57397;50.096;14.404;2023-04-01T23:52:51;0.95;;;0.50;;
65656;SDS011;57397;50.096;14.404;2023-04-01T23:55:22;1.00;;;0.50;;
